sensor_id;sensor_type;location;lat;lon;timestamp;temperature;humidity
2973;DHT22;1496;51.404;7.232;2023-02-02T00:01:28;4.40;99.90
2973;DHT22;1496;51.404;7.232;2023-02-02T00:03:56;4.50;99.90
2973;DHT22;1496;51.404;7.232;2023-02-02T00:06:27;4.60;99.90
2973;DHT22;1496;51.404;7.232;2023-02-02T00:08:56;4.70;99.90
2973;DHT22;1496;51.404;7.232;2023-02-02T00:11:25;4.70;99.90
2973;DHT22;1496;51.404;7.232;2023-02-02T00:13:52;4.80;99.90
2973;DHT22;1496;51.404;7.232;2023-02-02T00:19:18;4.70;99.90
2973;DHT22;1496;51.404;7.232;2023-02-02T00:21:45;4.60;99.90
2973;DHT22;1496;51.404;7.232;2023-02-02T00:24:13;4.60;99.90
2973;DHT22;1496;51.404;7.232;2023-02-02T00:26:41;4.60;99.90
2973;DHT22;1496;51.404;7.232;2023-02-02T00:29:15;4.60;99.90
2973;DHT22;1496;51.404;7.232;2023-02-02T00:31:43;4.70;99.90
2973;DHT22;1496;51.404;7.232;2023-02-02T00:34:13;4.70;99.90
2973;DHT22;1496;51.404;7.232;2023-02-02T00:36:41;4.70;99.90
2973;DHT22;1496;51.404;7.232;2023-02-02T00:39:14;4.70;99.90
2973;DHT22;1496;51.404;7.232;2023-02-02T00:41:41;4.70;99.90
2973;DHT22;1496;51.404;7.232;2023-02-02T00:44:08;4.70;99.90
2973;DHT22;1496;51.404;7.232;2023-02-02T00:46:53;4.70;99.90
2973;DHT22;1496;51.404;7.232;2023-02-02T00:49:20;4.80;99.90
2973;DHT22;1496;51.404;7.232;2023-02-02T00:51:47;4.80;99.90
2973;DHT22;1496;51.404;7.232;2023-02-02T00:54:13;4.90;99.90
2973;DHT22;1496;51.404;7.232;2023-02-02T00:56:41;5.00;99.90
2973;DHT22;1496;51.404;7.232;2023-02-02T00:59:08;5.00;99.90
2973;DHT22;1496;51.404;7.232;2023-02-02T01:01:35;5.00;99.90
2973;DHT22;1496;51.404;7.232;2023-02-02T01:04:01;5.10;99.90
2973;DHT22;1496;51.404;7.232;2023-02-02T01:06:28;5.10;99.90
2973;DHT22;1496;51.404;7.232;2023-02-02T01:08:57;5.10;99.90
2973;DHT22;1496;51.404;7.232;2023-02-02T01:11:23;5.20;99.90
2973;DHT22;1496;51.404;7.232;2023-02-02T01:13:51;5.20;99.90
2973;DHT22;1496;51.404;7.232;2023-02-02T01:16:18;5.20;99.90
2973;DHT22;1496;51.404;7.232;2023-02-02T01:18:48;5.20;99.90
2973;DHT22;1496;51.404;7.232;2023-02-02T01:21:14;5.20;99.90
2973;DHT22;1496;51.404;7.232;2023-02-02T01:23:42;5.20;99.90
2973;DHT22;1496;51.404;7.232;2023-02-02T01:26:10;5.30;99.90
2973;DHT22;1496;51.404;7.232;2023-02-02T01:28:37;5.30;99.90
2973;DHT22;1496;51.404;7.232;2023-02-02T01:31:07;5.30;99.90
2973;DHT22;1496;51.404;7.232;2023-02-02T01:33:35;5.30;99.90
2973;DHT22;1496;51.404;7.232;2023-02-02T01:36:08;5.30;99.90
2973;DHT22;1496;51.404;7.232;2023-02-02T01:38:35;5.30;99.90
2973;DHT22;1496;51.404;7.232;2023-02-02T01:41:02;5.40;99.90
2973;DHT22;1496;51.404;7.232;2023-02-02T01:43:57;5.40;99.90
2973;DHT22;1496;51.404;7.232;2023-02-02T01:46:28;5.40;99.90
2973;DHT22;1496;51.404;7.232;2023-02-02T01:49:10;5.40;99.90
2973;DHT22;1496;51.404;7.232;2023-02-02T01:54:17;5.50;99.90
2973;DHT22;1496;51.404;7.232;2023-02-02T01:56:50;5.50;99.90
2973;DHT22;1496;51.404;7.232;2023-02-02T01:59:19;5.50;99.90
2973;DHT22;1496;51.404;7.232;2023-02-02T02:01:47;5.50;99.90
2973;DHT22;1496;51.404;7.232;2023-02-02T02:04:18;5.50;99.90
2973;DHT22;1496;51.404;7.232;2023-02-02T02:06:44;5.50;99.90
2973;DHT22;1496;51.404;7.232;2023-02-02T02:09:11;5.60;99.90
2973;DHT22;1496;51.404;7.232;2023-02-02T02:11:38;5.60;99.90
2973;DHT22;1496;51.404;7.232;2023-02-02T02:14:08;5.60;99.90
2973;DHT22;1496;51.404;7.232;2023-02-02T02:26:18;5.70;99.90
2973;DHT22;1496;51.404;7.232;2023-02-02T02:31:57;5.80;99.90
2973;DHT22;1496;51.404;7.232;2023-02-02T02:34:37;5.80;99.90
2973;DHT22;1496;51.404;7.232;2023-02-02T02:40:06;5.70;99.90
2973;DHT22;1496;51.404;7.232;2023-02-02T02:42:40;5.80;99.90
2973;DHT22;1496;51.404;7.232;2023-02-02T02:45:10;5.80;99.90
2973;DHT22;1496;51.404;7.232;2023-02-02T02:47:39;5.80;99.90
2973;DHT22;1496;51.404;7.232;2023-02-02T02:50:07;5.80;99.90
2973;DHT22;1496;51.404;7.232;2023-02-02T02:52:35;5.80;99.90
2973;DHT22;1496;51.404;7.232;2023-02-02T02:55:05;5.80;99.90
2973;DHT22;1496;51.404;7.232;2023-02-02T02:57:55;5.80;99.90
2973;DHT22;1496;51.404;7.232;2023-02-02T03:00:48;5.80;99.90
2973;DHT22;1496;51.404;7.232;2023-02-02T03:06:24;5.80;99.90
2973;DHT22;1496;51.404;7.232;2023-02-02T03:09:02;5.80;99.90
2973;DHT22;1496;51.404;7.232;2023-02-02T03:11:30;5.80;99.90
2973;DHT22;1496;51.404;7.232;2023-02-02T03:13:56;5.70;99.90
2973;DHT22;1496;51.404;7.232;2023-02-02T03:16:22;5.70;99.90
2973;DHT22;1496;51.404;7.232;2023-02-02T03:18:50;5.70;99.90
2973;DHT22;1496;51.404;7.232;2023-02-02T03:21:16;5.70;99.90
2973;DHT22;1496;51.404;7.232;2023-02-02T03:23:44;5.70;99.90
2973;DHT22;1496;51.404;7.232;2023-02-02T03:26:09;5.60;99.90
2973;DHT22;1496;51.404;7.232;2023-02-02T03:28:37;5.60;99.90
2973;DHT22;1496;51.404;7.232;2023-02-02T03:31:04;5.60;99.90
2973;DHT22;1496;51.404;7.232;2023-02-02T03:33:32;5.60;99.90
2973;DHT22;1496;51.404;7.232;2023-02-02T03:36:01;5.70;99.90
2973;DHT22;1496;51.404;7.232;2023-02-02T03:38:27;5.60;99.90
2973;DHT22;1496;51.404;7.232;2023-02-02T03:40:56;5.70;99.90
2973;DHT22;1496;51.404;7.232;2023-02-02T03:43:22;5.70;99.90
2973;DHT22;1496;51.404;7.232;2023-02-02T03:46:07;5.70;99.90
2973;DHT22;1496;51.404;7.232;2023-02-02T03:48:35;5.70;99.90
2973;DHT22;1496;51.404;7.232;2023-02-02T03:51:12;5.70;99.90
2973;DHT22;1496;51.404;7.232;2023-02-02T03:53:40;5.70;99.90
2973;DHT22;1496;51.404;7.232;2023-02-02T03:56:10;5.70;99.90
2973;DHT22;1496;51.404;7.232;2023-02-02T03:58:37;5.80;99.90
2973;DHT22;1496;51.404;7.232;2023-02-02T04:01:09;5.80;99.90
2973;DHT22;1496;51.404;7.232;2023-02-02T04:03:36;5.80;99.90
2973;DHT22;1496;51.404;7.232;2023-02-02T04:06:04;5.80;99.90
2973;DHT22;1496;51.404;7.232;2023-02-02T04:08:30;5.80;99.90
2973;DHT22;1496;51.404;7.232;2023-02-02T04:10:58;5.80;99.90
2973;DHT22;1496;51.404;7.232;2023-02-02T04:13:26;5.80;99.90
2973;DHT22;1496;51.404;7.232;2023-02-02T04:15:57;5.80;99.90
2973;DHT22;1496;51.404;7.232;2023-02-02T04:18:24;5.90;99.90
2973;DHT22;1496;51.404;7.232;2023-02-02T04:20:57;5.90;99.90
2973;DHT22;1496;51.404;7.232;2023-02-02T04:23:27;5.90;99.90
2973;DHT22;1496;51.404;7.232;2023-02-02T04:25:55;5.80;99.90
2973;DHT22;1496;51.404;7.232;2023-02-02T04:28:22;5.90;99.90
2973;DHT22;1496;51.404;7.232;2023-02-02T04:30:54;5.90;99.90
2973;DHT22;1496;51.404;7.232;2023-02-02T04:33:23;5.90;99.90
2973;DHT22;1496;51.404;7.232;2023-02-02T04:35:50;5.90;99.90
2973;DHT22;1496;51.404;7.232;2023-02-02T04:38:16;5.90;99.90
2973;DHT22;1496;51.404;7.232;2023-02-02T04:40:44;5.90;99.90
2973;DHT22;1496;51.404;7.232;2023-02-02T04:43:11;5.90;99.90
2973;DHT22;1496;51.404;7.232;2023-02-02T04:45:38;5.90;99.90
2973;DHT22;1496;51.404;7.232;2023-02-02T04:48:06;5.90;99.90
2973;DHT22;1496;51.404;7.232;2023-02-02T04:50:32;6.00;99.90
2973;DHT22;1496;51.404;7.232;2023-02-02T04:52:57;6.00;99.90
2973;DHT22;1496;51.404;7.232;2023-02-02T04:55:25;5.90;99.90
2973;DHT22;1496;51.404;7.232;2023-02-02T04:57:51;6.00;99.90
2973;DHT22;1496;51.404;7.232;2023-02-02T05:00:18;6.00;99.90
2973;DHT22;1496;51.404;7.232;2023-02-02T05:02:45;6.00;99.90
2973;DHT22;1496;51.404;7.232;2023-02-02T05:05:13;6.00;99.90
2973;DHT22;1496;51.404;7.232;2023-02-02T05:07:39;6.00;99.90
2973;DHT22;1496;51.404;7.232;2023-02-02T05:10:08;6.00;99.90
2973;DHT22;1496;51.404;7.232;2023-02-02T05:12:35;6.00;99.90
2973;DHT22;1496;51.404;7.232;2023-02-02T05:15:03;6.00;99.90
2973;DHT22;1496;51.404;7.232;2023-02-02T05:17:30;6.10;99.90
2973;DHT22;1496;51.404;7.232;2023-02-02T05:19:56;6.00;99.90
2973;DHT22;1496;51.404;7.232;2023-02-02T05:22:24;6.10;99.90
2973;DHT22;1496;51.404;7.232;2023-02-02T05:24:52;6.10;99.90
2973;DHT22;1496;51.404;7.232;2023-02-02T05:27:19;6.10;99.90
2973;DHT22;1496;51.404;7.232;2023-02-02T05:29:47;6.10;99.90
2973;DHT22;1496;51.404;7.232;2023-02-02T05:32:14;6.10;99.90
2973;DHT22;1496;51.404;7.232;2023-02-02T05:34:41;6.10;99.90
2973;DHT22;1496;51.404;7.232;2023-02-02T05:37:10;6.10;99.90
2973;DHT22;1496;51.404;7.232;2023-02-02T05:39:38;6.10;99.90
2973;DHT22;1496;51.404;7.232;2023-02-02T05:42:04;6.10;99.90
2973;DHT22;1496;51.404;7.232;2023-02-02T05:44:31;6.10;99.90
2973;DHT22;1496;51.404;7.232;2023-02-02T05:46:57;6.10;99.90
2973;DHT22;1496;51.404;7.232;2023-02-02T05:49:23;6.10;99.90
2973;DHT22;1496;51.404;7.232;2023-02-02T05:51:53;6.20;99.90
2973;DHT22;1496;51.404;7.232;2023-02-02T05:54:23;6.10;99.90
2973;DHT22;1496;51.404;7.232;2023-02-02T05:56:51;6.20;99.90
2973;DHT22;1496;51.404;7.232;2023-02-02T05:59:19;6.20;99.90
2973;DHT22;1496;51.404;7.232;2023-02-02T06:01:46;6.20;99.90
2973;DHT22;1496;51.404;7.232;2023-02-02T06:04:14;6.20;99.90
2973;DHT22;1496;51.404;7.232;2023-02-02T06:06:41;6.20;99.90
2973;DHT22;1496;51.404;7.232;2023-02-02T06:09:09;6.20;99.90
2973;DHT22;1496;51.404;7.232;2023-02-02T06:11:36;6.20;99.90
2973;DHT22;1496;51.404;7.232;2023-02-02T06:14:04;6.20;99.90
2973;DHT22;1496;51.404;7.232;2023-02-02T06:16:30;6.20;99.90
2973;DHT22;1496;51.404;7.232;2023-02-02T06:18:57;6.20;99.90
2973;DHT22;1496;51.404;7.232;2023-02-02T06:21:23;6.30;99.90
2973;DHT22;1496;51.404;7.232;2023-02-02T06:23:51;6.20;99.90
2973;DHT22;1496;51.404;7.232;2023-02-02T06:26:18;6.30;99.90
2973;DHT22;1496;51.404;7.232;2023-02-02T06:28:50;6.30;99.90
2973;DHT22;1496;51.404;7.232;2023-02-02T06:31:19;6.30;99.90
2973;DHT22;1496;51.404;7.232;2023-02-02T06:33:57;6.30;99.90
2973;DHT22;1496;51.404;7.232;2023-02-02T06:36:26;6.30;99.90
2973;DHT22;1496;51.404;7.232;2023-02-02T06:38:54;6.30;99.90
2973;DHT22;1496;51.404;7.232;2023-02-02T06:41:23;6.30;99.90
2973;DHT22;1496;51.404;7.232;2023-02-02T06:43:50;6.30;99.90
2973;DHT22;1496;51.404;7.232;2023-02-02T06:46:17;6.30;99.90
2973;DHT22;1496;51.404;7.232;2023-02-02T06:48:45;6.30;99.90
2973;DHT22;1496;51.404;7.232;2023-02-02T06:51:13;6.30;99.90
2973;DHT22;1496;51.404;7.232;2023-02-02T06:53:40;6.30;99.90
2973;DHT22;1496;51.404;7.232;2023-02-02T06:56:10;6.30;99.90
2973;DHT22;1496;51.404;7.232;2023-02-02T06:58:38;6.30;99.90
2973;DHT22;1496;51.404;7.232;2023-02-02T07:01:08;6.30;99.90
2973;DHT22;1496;51.404;7.232;2023-02-02T07:03:35;6.30;99.90
2973;DHT22;1496;51.404;7.232;2023-02-02T07:06:33;6.30;99.90
2973;DHT22;1496;51.404;7.232;2023-02-02T07:08:59;6.30;99.90
2973;DHT22;1496;51.404;7.232;2023-02-02T07:11:26;6.20;99.90
2973;DHT22;1496;51.404;7.232;2023-02-02T07:13:53;6.30;99.90
2973;DHT22;1496;51.404;7.232;2023-02-02T07:16:20;6.30;99.90
2973;DHT22;1496;51.404;7.232;2023-02-02T07:18:46;6.30;99.90
2973;DHT22;1496;51.404;7.232;2023-02-02T07:21:21;6.30;99.90
2973;DHT22;1496;51.404;7.232;2023-02-02T07:23:48;6.30;99.90
2973;DHT22;1496;51.404;7.232;2023-02-02T07:26:15;6.30;99.90
2973;DHT22;1496;51.404;7.232;2023-02-02T07:28:43;6.30;99.90
2973;DHT22;1496;51.404;7.232;2023-02-02T07:33:41;6.30;99.90
2973;DHT22;1496;51.404;7.232;2023-02-02T07:36:09;6.30;99.90
2973;DHT22;1496;51.404;7.232;2023-02-02T07:38:37;6.30;99.90
2973;DHT22;1496;51.404;7.232;2023-02-02T07:41:04;6.30;99.90
2973;DHT22;1496;51.404;7.232;2023-02-02T07:43:31;6.30;99.90
2973;DHT22;1496;51.404;7.232;2023-02-02T07:46:00;6.40;99.90
2973;DHT22;1496;51.404;7.232;2023-02-02T07:48:33;6.30;99.90
2973;DHT22;1496;51.404;7.232;2023-02-02T07:51:04;6.30;99.90
2973;DHT22;1496;51.404;7.232;2023-02-02T07:53:32;6.40;99.90
2973;DHT22;1496;51.404;7.232;2023-02-02T07:58:37;6.40;99.90
2973;DHT22;1496;51.404;7.232;2023-02-02T08:01:05;6.40;99.90
2973;DHT22;1496;51.404;7.232;2023-02-02T08:03:33;6.40;99.90
2973;DHT22;1496;51.404;7.232;2023-02-02T08:05:59;6.40;99.90
2973;DHT22;1496;51.404;7.232;2023-02-02T08:08:26;6.40;99.90
2973;DHT22;1496;51.404;7.232;2023-02-02T08:10:54;6.40;99.90
2973;DHT22;1496;51.404;7.232;2023-02-02T08:13:21;6.40;99.90
2973;DHT22;1496;51.404;7.232;2023-02-02T08:15:48;6.40;99.90
2973;DHT22;1496;51.404;7.232;2023-02-02T08:18:15;6.40;99.90
2973;DHT22;1496;51.404;7.232;2023-02-02T08:20:41;6.40;99.90
2973;DHT22;1496;51.404;7.232;2023-02-02T08:23:10;6.40;99.90
2973;DHT22;1496;51.404;7.232;2023-02-02T08:25:40;6.40;99.90
2973;DHT22;1496;51.404;7.232;2023-02-02T08:28:07;6.40;99.90
2973;DHT22;1496;51.404;7.232;2023-02-02T08:30:36;6.40;99.90
2973;DHT22;1496;51.404;7.232;2023-02-02T08:33:02;6.40;99.90
2973;DHT22;1496;51.404;7.232;2023-02-02T08:35:29;6.40;99.90
2973;DHT22;1496;51.404;7.232;2023-02-02T08:37:56;6.40;99.90
2973;DHT22;1496;51.404;7.232;2023-02-02T08:40:23;6.40;99.90
2973;DHT22;1496;51.404;7.232;2023-02-02T08:42:53;6.40;99.90
2973;DHT22;1496;51.404;7.232;2023-02-02T08:45:21;6.40;99.90
2973;DHT22;1496;51.404;7.232;2023-02-02T08:47:48;6.40;99.90
2973;DHT22;1496;51.404;7.232;2023-02-02T08:50:15;6.40;99.90
2973;DHT22;1496;51.404;7.232;2023-02-02T08:52:41;6.50;99.90
2973;DHT22;1496;51.404;7.232;2023-02-02T08:55:08;6.40;99.90
2973;DHT22;1496;51.404;7.232;2023-02-02T08:57:35;6.40;99.90
2973;DHT22;1496;51.404;7.232;2023-02-02T09:00:05;6.40;99.90
2973;DHT22;1496;51.404;7.232;2023-02-02T09:02:33;6.40;99.90
2973;DHT22;1496;51.404;7.232;2023-02-02T09:05:00;6.40;99.90
2973;DHT22;1496;51.404;7.232;2023-02-02T09:07:26;6.40;99.90
2973;DHT22;1496;51.404;7.232;2023-02-02T09:09:52;6.40;99.90
2973;DHT22;1496;51.404;7.232;2023-02-02T09:12:20;6.40;99.90
2973;DHT22;1496;51.404;7.232;2023-02-02T09:14:46;6.40;99.90
2973;DHT22;1496;51.404;7.232;2023-02-02T09:17:13;6.40;99.90
2973;DHT22;1496;51.404;7.232;2023-02-02T09:19:39;6.40;99.90
2973;DHT22;1496;51.404;7.232;2023-02-02T09:22:06;6.40;99.90
2973;DHT22;1496;51.404;7.232;2023-02-02T09:24:33;6.40;99.90
2973;DHT22;1496;51.404;7.232;2023-02-02T09:27:00;6.40;99.90
2973;DHT22;1496;51.404;7.232;2023-02-02T09:29:31;6.40;99.90
2973;DHT22;1496;51.404;7.232;2023-02-02T09:31:59;6.40;99.90
2973;DHT22;1496;51.404;7.232;2023-02-02T09:34:25;6.40;99.90
2973;DHT22;1496;51.404;7.232;2023-02-02T09:36:51;6.40;99.90
2973;DHT22;1496;51.404;7.232;2023-02-02T09:39:19;6.50;99.90
2973;DHT22;1496;51.404;7.232;2023-02-02T09:53:16;6.50;99.90
2973;DHT22;1496;51.404;7.232;2023-02-02T09:55:47;6.50;99.90
2973;DHT22;1496;51.404;7.232;2023-02-02T09:58:25;6.50;99.90
2973;DHT22;1496;51.404;7.232;2023-02-02T10:01:07;6.50;99.90
2973;DHT22;1496;51.404;7.232;2023-02-02T10:06:53;6.50;99.90
2973;DHT22;1496;51.404;7.232;2023-02-02T10:09:39;6.50;99.90
2973;DHT22;1496;51.404;7.232;2023-02-02T10:18:12;6.50;99.90
2973;DHT22;1496;51.404;7.232;2023-02-02T10:20:53;6.50;99.90
2973;DHT22;1496;51.404;7.232;2023-02-02T10:23:27;6.50;99.90
2973;DHT22;1496;51.404;7.232;2023-02-02T10:28:46;6.50;99.90
2973;DHT22;1496;51.404;7.232;2023-02-02T10:34:41;6.50;99.90
2973;DHT22;1496;51.404;7.232;2023-02-02T10:40:16;6.50;99.90
2973;DHT22;1496;51.404;7.232;2023-02-02T10:45:35;6.50;99.90
2973;DHT22;1496;51.404;7.232;2023-02-02T10:48:14;6.50;99.90
2973;DHT22;1496;51.404;7.232;2023-02-02T10:50:46;6.50;99.90
2973;DHT22;1496;51.404;7.232;2023-02-02T10:53:16;6.60;99.90
2973;DHT22;1496;51.404;7.232;2023-02-02T10:58:29;6.50;99.90
2973;DHT22;1496;51.404;7.232;2023-02-02T11:01:03;6.60;99.90
2973;DHT22;1496;51.404;7.232;2023-02-02T11:03:33;6.60;99.90
2973;DHT22;1496;51.404;7.232;2023-02-02T11:06:03;6.60;99.90
2973;DHT22;1496;51.404;7.232;2023-02-02T11:08:52;6.60;99.90
2973;DHT22;1496;51.404;7.232;2023-02-02T11:11:26;6.60;99.90
2973;DHT22;1496;51.404;7.232;2023-02-02T11:14:03;6.60;99.90
2973;DHT22;1496;51.404;7.232;2023-02-02T11:16:38;6.60;99.90
2973;DHT22;1496;51.404;7.232;2023-02-02T11:19:22;6.60;99.90
2973;DHT22;1496;51.404;7.232;2023-02-02T11:21:55;6.60;99.90
2973;DHT22;1496;51.404;7.232;2023-02-02T11:24:29;6.60;99.90
2973;DHT22;1496;51.404;7.232;2023-02-02T11:27:14;6.60;99.90
2973;DHT22;1496;51.404;7.232;2023-02-02T11:29:46;6.60;99.90
2973;DHT22;1496;51.404;7.232;2023-02-02T11:32:30;6.60;99.90
2973;DHT22;1496;51.404;7.232;2023-02-02T11:35:23;6.60;99.90
2973;DHT22;1496;51.404;7.232;2023-02-02T11:40:34;6.60;99.90
2973;DHT22;1496;51.404;7.232;2023-02-02T11:43:16;6.70;99.90
2973;DHT22;1496;51.404;7.232;2023-02-02T11:45:47;6.70;99.90
2973;DHT22;1496;51.404;7.232;2023-02-02T11:48:19;6.70;99.90
2973;DHT22;1496;51.404;7.232;2023-02-02T11:50:50;6.70;99.90
2973;DHT22;1496;51.404;7.232;2023-02-02T11:53:29;6.70;99.90
2973;DHT22;1496;51.404;7.232;2023-02-02T11:56:05;6.70;99.90
2973;DHT22;1496;51.404;7.232;2023-02-02T11:58:45;6.70;99.90
2973;DHT22;1496;51.404;7.232;2023-02-02T12:01:34;6.70;99.90
2973;DHT22;1496;51.404;7.232;2023-02-02T12:04:20;6.70;99.90
2973;DHT22;1496;51.404;7.232;2023-02-02T12:06:48;6.70;99.90
2973;DHT22;1496;51.404;7.232;2023-02-02T12:09:22;6.70;99.90
2973;DHT22;1496;51.404;7.232;2023-02-02T12:14:46;6.70;99.90
2973;DHT22;1496;51.404;7.232;2023-02-02T12:17:33;6.70;99.90
2973;DHT22;1496;51.404;7.232;2023-02-02T12:36:50;6.70;99.90
2973;DHT22;1496;51.404;7.232;2023-02-02T12:42:39;6.80;99.90
2973;DHT22;1496;51.404;7.232;2023-02-02T12:56:59;6.80;99.90
2973;DHT22;1496;51.404;7.232;2023-02-02T13:05:32;6.80;99.90
2973;DHT22;1496;51.404;7.232;2023-02-02T13:08:13;6.80;99.90
2973;DHT22;1496;51.404;7.232;2023-02-02T13:10:46;6.80;99.90
2973;DHT22;1496;51.404;7.232;2023-02-02T13:13:25;6.80;99.90
2973;DHT22;1496;51.404;7.232;2023-02-02T13:16:08;6.80;99.90
2973;DHT22;1496;51.404;7.232;2023-02-02T13:18:53;6.80;99.90
2973;DHT22;1496;51.404;7.232;2023-02-02T13:21:22;6.80;99.90
2973;DHT22;1496;51.404;7.232;2023-02-02T13:23:56;6.80;99.90
2973;DHT22;1496;51.404;7.232;2023-02-02T13:26:37;6.80;99.90
2973;DHT22;1496;51.404;7.232;2023-02-02T13:29:15;6.80;99.90
2973;DHT22;1496;51.404;7.232;2023-02-02T13:31:49;6.80;99.90
2973;DHT22;1496;51.404;7.232;2023-02-02T13:37:14;6.80;99.90
2973;DHT22;1496;51.404;7.232;2023-02-02T13:39:53;6.80;99.90
2973;DHT22;1496;51.404;7.232;2023-02-02T13:45:02;6.80;99.90
2973;DHT22;1496;51.404;7.232;2023-02-02T13:47:39;6.80;99.90
2973;DHT22;1496;51.404;7.232;2023-02-02T13:50:14;6.90;99.90
2973;DHT22;1496;51.404;7.232;2023-02-02T13:58:57;6.80;99.90
2973;DHT22;1496;51.404;7.232;2023-02-02T14:01:30;6.80;99.90
2973;DHT22;1496;51.404;7.232;2023-02-02T14:03:57;6.80;99.90
2973;DHT22;1496;51.404;7.232;2023-02-02T14:06:26;6.80;99.90
2973;DHT22;1496;51.404;7.232;2023-02-02T14:08:59;6.80;99.90
2973;DHT22;1496;51.404;7.232;2023-02-02T14:11:54;6.80;99.90
2973;DHT22;1496;51.404;7.232;2023-02-02T14:14:23;6.80;99.90
2973;DHT22;1496;51.404;7.232;2023-02-02T14:17:05;6.80;99.90
2973;DHT22;1496;51.404;7.232;2023-02-02T14:24:42;6.80;99.90
2973;DHT22;1496;51.404;7.232;2023-02-02T14:37:56;6.80;99.90
2973;DHT22;1496;51.404;7.232;2023-02-02T14:40:31;6.80;99.90
2973;DHT22;1496;51.404;7.232;2023-02-02T14:49:04;6.70;99.90
2973;DHT22;1496;51.404;7.232;2023-02-02T14:51:48;6.70;99.90
2973;DHT22;1496;51.404;7.232;2023-02-02T14:54:31;6.70;99.90
2973;DHT22;1496;51.404;7.232;2023-02-02T14:57:03;6.70;99.90
2973;DHT22;1496;51.404;7.232;2023-02-02T14:59:36;6.70;99.90
2973;DHT22;1496;51.404;7.232;2023-02-02T15:02:24;6.70;99.90
2973;DHT22;1496;51.404;7.232;2023-02-02T15:08:25;6.70;99.90
2973;DHT22;1496;51.404;7.232;2023-02-02T15:11:00;6.70;99.90
2973;DHT22;1496;51.404;7.232;2023-02-02T15:13:33;6.70;99.90
2973;DHT22;1496;51.404;7.232;2023-02-02T15:16:18;6.70;99.90
2973;DHT22;1496;51.404;7.232;2023-02-02T15:18:58;6.70;99.90
2973;DHT22;1496;51.404;7.232;2023-02-02T15:21:31;6.70;99.90
2973;DHT22;1496;51.404;7.232;2023-02-02T15:24:01;6.70;99.90
2973;DHT22;1496;51.404;7.232;2023-02-02T15:26:34;6.70;99.90
2973;DHT22;1496;51.404;7.232;2023-02-02T15:29:07;6.70;99.90
2973;DHT22;1496;51.404;7.232;2023-02-02T15:31:47;6.70;99.90
2973;DHT22;1496;51.404;7.232;2023-02-02T15:34:34;6.70;99.90
2973;DHT22;1496;51.404;7.232;2023-02-02T15:37:06;6.70;99.90
2973;DHT22;1496;51.404;7.232;2023-02-02T15:39:42;6.70;99.90
2973;DHT22;1496;51.404;7.232;2023-02-02T15:42:26;6.70;99.90
2973;DHT22;1496;51.404;7.232;2023-02-02T15:45:31;6.70;99.90
2973;DHT22;1496;51.404;7.232;2023-02-02T15:48:01;6.70;99.90
2973;DHT22;1496;51.404;7.232;2023-02-02T15:50:32;6.70;99.90
2973;DHT22;1496;51.404;7.232;2023-02-02T15:52:58;6.70;99.90
2973;DHT22;1496;51.404;7.232;2023-02-02T15:55:35;6.70;99.90
2973;DHT22;1496;51.404;7.232;2023-02-02T15:58:01;6.70;99.90
2973;DHT22;1496;51.404;7.232;2023-02-02T16:00:35;6.70;99.90
2973;DHT22;1496;51.404;7.232;2023-02-02T16:03:13;6.70;99.90
2973;DHT22;1496;51.404;7.232;2023-02-02T16:05:49;6.70;99.90
2973;DHT22;1496;51.404;7.232;2023-02-02T16:08:27;6.80;99.90
2973;DHT22;1496;51.404;7.232;2023-02-02T16:11:04;6.70;99.90
2973;DHT22;1496;51.404;7.232;2023-02-02T16:13:33;6.70;99.90
2973;DHT22;1496;51.404;7.232;2023-02-02T16:16:02;6.70;99.90
2973;DHT22;1496;51.404;7.232;2023-02-02T16:18:32;6.70;99.90
2973;DHT22;1496;51.404;7.232;2023-02-02T16:21:03;6.70;99.90
2973;DHT22;1496;51.404;7.232;2023-02-02T16:23:33;6.70;99.90
2973;DHT22;1496;51.404;7.232;2023-02-02T16:26:04;6.80;99.90
2973;DHT22;1496;51.404;7.232;2023-02-02T16:28:31;6.80;99.90
2973;DHT22;1496;51.404;7.232;2023-02-02T16:31:00;6.80;99.90
2973;DHT22;1496;51.404;7.232;2023-02-02T16:33:41;6.80;99.90
2973;DHT22;1496;51.404;7.232;2023-02-02T16:36:23;6.80;99.90
2973;DHT22;1496;51.404;7.232;2023-02-02T16:38:51;6.80;99.90
2973;DHT22;1496;51.404;7.232;2023-02-02T16:41:31;6.80;99.90
2973;DHT22;1496;51.404;7.232;2023-02-02T16:44:27;6.80;99.90
2973;DHT22;1496;51.404;7.232;2023-02-02T16:46:55;6.80;99.90
2973;DHT22;1496;51.404;7.232;2023-02-02T16:49:24;6.80;99.90
2973;DHT22;1496;51.404;7.232;2023-02-02T16:52:09;6.80;99.90
2973;DHT22;1496;51.404;7.232;2023-02-02T16:54:48;6.80;99.90
2973;DHT22;1496;51.404;7.232;2023-02-02T16:57:27;6.80;99.90
2973;DHT22;1496;51.404;7.232;2023-02-02T16:59:59;6.80;99.90
2973;DHT22;1496;51.404;7.232;2023-02-02T17:07:50;6.80;99.90
2973;DHT22;1496;51.404;7.232;2023-02-02T17:10:37;6.90;99.90
2973;DHT22;1496;51.404;7.232;2023-02-02T17:16:01;6.90;99.90
2973;DHT22;1496;51.404;7.232;2023-02-02T17:18:28;6.80;99.90
2973;DHT22;1496;51.404;7.232;2023-02-02T17:20:56;6.80;99.90
2973;DHT22;1496;51.404;7.232;2023-02-02T17:23:26;6.80;99.90
2973;DHT22;1496;51.404;7.232;2023-02-02T17:25:53;6.80;99.90
2973;DHT22;1496;51.404;7.232;2023-02-02T17:28:23;6.90;99.90
2973;DHT22;1496;51.404;7.232;2023-02-02T17:31:00;6.80;99.90
2973;DHT22;1496;51.404;7.232;2023-02-02T17:33:27;6.90;99.90
2973;DHT22;1496;51.404;7.232;2023-02-02T17:35:54;6.80;99.90
2973;DHT22;1496;51.404;7.232;2023-02-02T17:38:21;6.90;99.90
2973;DHT22;1496;51.404;7.232;2023-02-02T17:40:48;6.90;99.90
2973;DHT22;1496;51.404;7.232;2023-02-02T17:43:16;6.90;99.90
2973;DHT22;1496;51.404;7.232;2023-02-02T17:45:42;6.90;99.90
2973;DHT22;1496;51.404;7.232;2023-02-02T17:48:11;6.90;99.90
2973;DHT22;1496;51.404;7.232;2023-02-02T17:50:38;6.90;99.90
2973;DHT22;1496;51.404;7.232;2023-02-02T17:53:05;6.90;99.90
2973;DHT22;1496;51.404;7.232;2023-02-02T17:55:35;7.00;99.90
2973;DHT22;1496;51.404;7.232;2023-02-02T17:58:03;6.90;99.90
2973;DHT22;1496;51.404;7.232;2023-02-02T18:00:29;6.90;99.90
2973;DHT22;1496;51.404;7.232;2023-02-02T18:05:41;6.90;99.90
2973;DHT22;1496;51.404;7.232;2023-02-02T18:08:10;6.90;99.90
2973;DHT22;1496;51.404;7.232;2023-02-02T18:10:37;6.90;99.90
2973;DHT22;1496;51.404;7.232;2023-02-02T18:13:04;6.90;99.90
2973;DHT22;1496;51.404;7.232;2023-02-02T18:15:32;7.00;99.90
2973;DHT22;1496;51.404;7.232;2023-02-02T18:18:01;7.00;99.90
2973;DHT22;1496;51.404;7.232;2023-02-02T18:20:28;7.00;99.90
2973;DHT22;1496;51.404;7.232;2023-02-02T18:22:56;7.00;99.90
2973;DHT22;1496;51.404;7.232;2023-02-02T18:25:25;7.00;99.90
2973;DHT22;1496;51.404;7.232;2023-02-02T18:27:52;7.00;99.90
2973;DHT22;1496;51.404;7.232;2023-02-02T18:30:18;7.00;99.90
2973;DHT22;1496;51.404;7.232;2023-02-02T18:32:45;7.00;99.90
2973;DHT22;1496;51.404;7.232;2023-02-02T18:35:12;7.00;99.90
2973;DHT22;1496;51.404;7.232;2023-02-02T18:37:39;7.00;99.90
2973;DHT22;1496;51.404;7.232;2023-02-02T18:40:06;7.00;99.90
2973;DHT22;1496;51.404;7.232;2023-02-02T18:42:34;7.00;99.90
2973;DHT22;1496;51.404;7.232;2023-02-02T18:45:03;7.00;99.90
2973;DHT22;1496;51.404;7.232;2023-02-02T18:47:31;7.00;99.90
2973;DHT22;1496;51.404;7.232;2023-02-02T18:49:58;7.00;99.90
2973;DHT22;1496;51.404;7.232;2023-02-02T18:52:25;7.00;99.90
2973;DHT22;1496;51.404;7.232;2023-02-02T18:54:51;7.00;99.90
2973;DHT22;1496;51.404;7.232;2023-02-02T18:57:17;7.00;99.90
2973;DHT22;1496;51.404;7.232;2023-02-02T18:59:44;7.00;99.90
2973;DHT22;1496;51.404;7.232;2023-02-02T19:02:13;7.00;99.90
2973;DHT22;1496;51.404;7.232;2023-02-02T19:04:41;7.00;99.90
2973;DHT22;1496;51.404;7.232;2023-02-02T19:07:28;7.10;99.90
2973;DHT22;1496;51.404;7.232;2023-02-02T19:10:13;7.10;99.90
2973;DHT22;1496;51.404;7.232;2023-02-02T19:12:56;7.10;99.90
2973;DHT22;1496;51.404;7.232;2023-02-02T19:15:22;7.10;99.90
2973;DHT22;1496;51.404;7.232;2023-02-02T19:17:53;7.10;99.90